Time;durP1;ratioP1;P1;durP2;ratioP2;P2;SDS_P1;SDS_P2;PMS_P1;PMS_P2;Temp;Humidity;BMP_temperature;BMP_pressure;BME280_temperature;BME280_humidity;BME280_pressure;Samples;Min_cycle;Max_cycle;Signal;HPM_P1;HPM_P2
2022/07/01 00:00:32;;;;;;;4.93;3.78;;;22.60;88.70;;;;;;4983736;28;20225;-72
2022/07/01 00:02:58;;;;;;;5.53;3.55;;;22.60;88.90;;;;;;4985146;28;20316;-72
2022/07/01 00:05:24;;;;;;;7.82;4.03;;;22.50;89.70;;;;;;4997727;28;20089;-73
2022/07/01 00:07:49;;;;;;;8.65;3.92;;;22.50;90.10;;;;;;5005566;28;20033;-72
2022/07/01 00:10:15;;;;;;;8.87;4.30;;;22.50;90.30;;;;;;5005788;28;20049;-72
2022/07/01 00:12:41;;;;;;;7.50;3.83;;;22.50;90.50;;;;;;4989175;28;20030;-73
2022/07/01 00:15:07;;;;;;;8.37;4.30;;;22.50;90.40;;;;;;4993297;28;20307;-72
2022/07/01 00:17:33;;;;;;;6.10;4.43;;;22.50;90.70;;;;;;5005622;28;20057;-72
2022/07/01 00:19:59;;;;;;;7.50;4.47;;;22.50;90.40;;;;;;5005703;28;20030;-73
2022/07/01 00:22:27;;;;;;;10.03;4.53;;;22.50;90.60;;;;;;5005593;28;20222;-72
2022/07/01 00:24:54;;;;;;;8.95;4.10;;;22.50;90.50;;;;;;5003896;28;20034;-72
2022/07/01 00:27:19;;;;;;;5.65;3.78;;;22.50;90.70;;;;;;5004247;28;20309;-72
2022/07/01 00:29:45;;;;;;;6.53;3.73;;;22.50;90.70;;;;;;5005490;28;20045;-72
2022/07/01 00:32:11;;;;;;;7.67;4.10;;;22.40;90.80;;;;;;5005403;28;20053;-73
2022/07/01 00:34:37;;;;;;;7.40;4.23;;;22.30;90.90;;;;;;5004953;28;20034;-72
2022/07/01 00:37:03;;;;;;;4.40;3.55;;;22.30;91.30;;;;;;5005130;28;20030;-73
2022/07/01 00:39:31;;;;;;;7.55;4.15;;;22.20;91.40;;;;;;5005044;28;20265;-73
2022/07/01 00:42:03;;;;;;;6.63;3.60;;;22.20;91.60;;;;;;5003745;28;20038;-73
2022/07/01 00:44:29;;;;;;;5.35;4.20;;;22.10;91.80;;;;;;4998716;28;20019;-72
2022/07/01 00:46:55;;;;;;;5.80;3.83;;;22.00;91.90;;;;;;4985778;28;20041;-72
2022/07/01 00:49:21;;;;;;;6.65;3.95;;;21.90;92.20;;;;;;4984553;28;20031;-73
2022/07/01 00:51:47;;;;;;;6.17;3.17;;;21.90;92.50;;;;;;4984448;28;20027;-72
2022/07/01 00:54:13;;;;;;;6.15;3.53;;;21.80;92.60;;;;;;4996065;28;20062;-72
2022/07/01 00:56:39;;;;;;;8.82;4.40;;;21.70;92.60;;;;;;5003663;28;20042;-73
2022/07/01 00:59:05;;;;;;;5.17;3.40;;;21.70;92.70;;;;;;5004802;28;20056;-72
2022/07/01 01:01:30;;;;;;;5.97;3.67;;;21.60;92.70;;;;;;5003511;28;20045;-72
2022/07/01 01:03:56;;;;;;;7.67;3.93;;;21.50;92.90;;;;;;4999575;28;20072;-73
2022/07/01 01:06:22;;;;;;;4.67;3.27;;;21.50;92.90;;;;;;4969339;28;20031;-74
2022/07/01 01:08:48;;;;;;;4.07;3.10;;;21.50;93.00;;;;;;5003553;28;20030;-73
2022/07/01 01:11:15;;;;;;;;;;;21.40;93.00;;;;;;5004062;28;20022;-74
2022/07/01 01:13:41;;;;;;;7.03;3.10;;;21.40;92.90;;;;;;4999364;28;19917;-74
2022/07/01 01:16:07;;;;;;;6.35;3.40;;;21.30;92.70;;;;;;4972099;28;20417;-74
2022/07/01 01:18:33;;;;;;;5.73;2.70;;;21.30;92.80;;;;;;4985019;28;20254;-73
2022/07/01 01:20:59;;;;;;;6.88;2.72;;;21.20;92.60;;;;;;5000110;28;20496;-73
2022/07/01 01:23:25;;;;;;;3.67;2.60;;;21.10;92.10;;;;;;4999802;28;20058;-73
2022/07/01 01:25:50;;;;;;;3.87;2.43;;;20.90;92.60;;;;;;4979824;28;20239;-74
2022/07/01 01:28:16;;;;;;;4.47;2.60;;;20.70;92.60;;;;;;4964509;29;20023;-73
2022/07/01 01:30:42;;;;;;;5.80;2.73;;;20.50;92.90;;;;;;4978163;28;20018;-74
2022/07/01 01:33:08;;;;;;;5.93;2.50;;;20.40;93.30;;;;;;4995857;28;20221;-74
2022/07/01 01:35:34;;;;;;;5.68;2.38;;;20.30;93.40;;;;;;5003093;28;20022;-74
2022/07/01 01:38:00;;;;;;;3.97;2.20;;;20.30;93.70;;;;;;5025710;23;20053;-76
2022/07/01 01:40:26;;;;;;;3.30;2.20;;;20.20;93.80;;;;;;4995453;28;20019;-76
2022/07/01 01:42:52;;;;;;;4.97;2.40;;;20.10;93.80;;;;;;4977624;28;20089;-76
2022/07/01 01:45:18;;;;;;;3.28;2.33;;;20.10;94.00;;;;;;4981965;28;20046;-76
2022/07/01 01:47:44;;;;;;;5.00;2.47;;;20.10;94.20;;;;;;4971376;28;20372;-76
2022/07/01 01:50:10;;;;;;;3.42;2.15;;;20.10;94.50;;;;;;4991017;28;20037;-76
2022/07/01 01:52:38;;;;;;;;;;;20.00;94.50;;;;;;4992010;28;20094;-75
2022/07/01 01:55:05;;;;;;;4.72;2.42;;;20.00;94.60;;;;;;4992308;28;19917;-75
2022/07/01 01:57:30;;;;;;;;;;;20.00;94.70;;;;;;4983623;28;20081;-76
2022/07/01 01:59:56;;;;;;;5.38;2.47;;;20.00;94.70;;;;;;4982374;28;19953;-76
2022/07/01 02:02:22;;;;;;;4.47;2.10;;;20.00;94.80;;;;;;4983214;28;20280;-75
2022/07/01 02:04:48;;;;;;;2.60;1.93;;;20.00;95.10;;;;;;4981976;28;20376;-73
2022/07/01 02:07:14;;;;;;;4.73;2.50;;;20.00;95.00;;;;;;4966967;28;20030;-74
2022/07/01 02:09:39;;;;;;;3.60;2.20;;;20.00;94.80;;;;;;4990400;28;20274;-75
2022/07/01 02:12:05;;;;;;;5.37;2.33;;;20.00;94.70;;;;;;4989126;28;20030;-75
2022/07/01 02:14:31;;;;;;;3.08;2.10;;;20.00;94.70;;;;;;4966051;28;20038;-74
2022/07/01 02:16:57;;;;;;;4.77;2.20;;;20.00;94.70;;;;;;4983889;28;20022;-74
2022/07/01 02:19:23;;;;;;;3.53;2.10;;;19.90;94.80;;;;;;4983190;28;20027;-74
2022/07/01 02:21:50;;;;;;;6.50;2.30;;;19.80;94.90;;;;;;4966755;28;20031;-74
2022/07/01 02:24:18;;;;;;;2.63;1.75;;;19.80;95.20;;;;;;4980571;28;20045;-74
2022/07/01 02:26:44;;;;;;;3.53;2.05;;;19.70;95.30;;;;;;4982803;28;20217;-74
2022/07/01 02:29:10;;;;;;;2.90;2.28;;;19.70;95.50;;;;;;4983605;28;20027;-74
2022/07/01 02:31:35;;;;;;;2.17;1.77;;;19.70;95.40;;;;;;4962836;29;20042;-75
2022/07/01 02:34:01;;;;;;;3.20;1.93;;;19.70;95.50;;;;;;4963577;29;20203;-74
2022/07/01 02:36:27;;;;;;;3.10;2.30;;;19.70;95.50;;;;;;4976521;28;20266;-74
2022/07/01 02:38:53;;;;;;;5.40;1.90;;;19.70;95.40;;;;;;4983616;28;20230;-74
2022/07/01 02:41:18;;;;;;;5.43;2.33;;;19.70;95.50;;;;;;4981687;28;20030;-74
2022/07/01 02:43:46;;;;;;;3.08;2.30;;;19.70;95.80;;;;;;4983427;28;20054;-75
2022/07/01 02:46:12;;;;;;;3.57;2.43;;;19.60;95.90;;;;;;4966122;28;20023;-75
2022/07/01 02:48:37;;;;;;;3.20;2.17;;;19.60;95.90;;;;;;4982899;28;20027;-75
2022/07/01 02:51:03;;;;;;;3.20;1.97;;;19.50;96.30;;;;;;4983317;28;20054;-74
2022/07/01 02:53:29;;;;;;;4.50;2.30;;;19.50;96.50;;;;;;4982662;28;20058;-75
2022/07/01 02:55:55;;;;;;;4.27;2.07;;;19.50;96.60;;;;;;4983226;28;20213;-74
2022/07/01 02:58:20;;;;;;;4.77;2.03;;;19.40;96.70;;;;;;4981892;28;20349;-74
2022/07/01 03:00:48;;;;;;;2.30;1.87;;;19.40;96.80;;;;;;4983280;28;20022;-74
2022/07/01 03:03:14;;;;;;;3.63;2.17;;;19.40;97.20;;;;;;4981462;28;20021;-74
2022/07/01 03:05:40;;;;;;;4.60;2.57;;;19.30;97.30;;;;;;4983136;28;20026;-75
2022/07/01 03:08:05;;;;;;;6.17;2.33;;;19.30;97.50;;;;;;4966046;28;20038;-75
2022/07/01 03:10:31;;;;;;;2.53;2.20;;;19.30;97.60;;;;;;4982771;28;20026;-75
2022/07/01 03:12:59;;;;;;;5.37;2.80;;;19.20;97.60;;;;;;4982740;28;20122;-75
2022/07/01 03:15:24;;;;;;;3.25;2.63;;;19.20;97.70;;;;;;4950596;28;20037;-74
2022/07/01 03:17:50;;;;;;;2.57;2.33;;;19.20;97.90;;;;;;4966079;28;20022;-75
2022/07/01 03:20:16;;;;;;;2.90;2.30;;;19.10;98.10;;;;;;4981199;28;20023;-75
2022/07/01 03:22:43;;;;;;;3.13;2.42;;;19.10;98.40;;;;;;4965983;28;20018;-74
2022/07/01 03:25:09;;;;;;;2.70;2.50;;;19.10;98.70;;;;;;4966288;28;20030;-75
2022/07/01 03:27:35;;;;;;;3.77;2.50;;;19.00;98.70;;;;;;4982110;28;20098;-75
2022/07/01 03:30:02;;;;;;;5.17;2.63;;;19.00;98.70;;;;;;4998212;28;20199;-74
2022/07/01 03:32:28;;;;;;;2.40;2.10;;;19.00;98.60;;;;;;4981566;28;20027;-75
2022/07/01 03:34:54;;;;;;;5.10;2.33;;;19.00;98.40;;;;;;4966634;28;20090;-75
2022/07/01 03:37:20;;;;;;;2.47;2.27;;;19.00;98.40;;;;;;4985586;28;20270;-74
2022/07/01 03:39:46;;;;;;;6.22;2.22;;;19.00;98.40;;;;;;4969061;28;20022;-74
2022/07/01 03:42:12;;;;;;;3.10;2.47;;;18.90;98.30;;;;;;4969815;28;20030;-74
2022/07/01 03:44:38;;;;;;;4.97;2.33;;;19.00;98.40;;;;;;4969618;28;20038;-74
2022/07/01 03:47:05;;;;;;;2.20;1.93;;;19.00;98.40;;;;;;4969827;28;20082;-74
2022/07/01 03:49:32;;;;;;;3.78;2.22;;;19.00;98.40;;;;;;4969918;28;20089;-74
2022/07/01 03:51:58;;;;;;;9.30;4.03;;;18.90;98.40;;;;;;4969662;28;20034;-74
2022/07/01 03:54:30;;;;;;;4.27;2.63;;;18.90;98.60;;;;;;4985275;28;20026;-74
2022/07/01 03:57:06;;;;;;;27.98;10.60;;;18.90;98.60;;;;;;4987231;28;20082;-74
2022/07/01 03:59:36;;;;;;;4.35;2.40;;;18.80;98.60;;;;;;4970493;28;20018;-74
2022/07/01 04:02:03;;;;;;;5.25;2.42;;;18.80;98.80;;;;;;4984776;28;20027;-74
2022/07/01 04:04:29;;;;;;;;;;;18.70;99.10;;;;;;4986019;28;20022;-74
2022/07/01 04:06:57;;;;;;;4.57;2.58;;;18.60;99.40;;;;;;4985584;28;19906;-74
2022/07/01 04:09:23;;;;;;;9.30;3.75;;;18.60;99.70;;;;;;4970611;28;20030;-74
2022/07/01 04:11:49;;;;;;;4.65;2.72;;;18.60;99.90;;;;;;4983967;28;20364;-74
2022/07/01 04:14:15;;;;;;;4.67;3.07;;;18.60;99.90;;;;;;4985480;28;20035;-74
2022/07/01 04:16:41;;;;;;;3.63;2.83;;;18.60;99.90;;;;;;4970506;28;20489;-74
2022/07/01 04:19:08;;;;;;;4.25;2.85;;;18.70;99.90;;;;;;4970985;28;20360;-73
2022/07/01 04:24:18;;;;;;;4.07;2.92;;;18.70;99.90;;;;;;4980159;28;20586;-73
2022/07/01 04:26:44;;;;;;;4.07;2.77;;;18.80;99.90;;;;;;4996505;28;20035;-73
2022/07/01 04:29:10;;;;;;;3.42;3.00;;;18.80;99.90;;;;;;4980980;28;20021;-73
2022/07/01 04:31:37;;;;;;;4.30;2.67;;;18.70;99.90;;;;;;4994318;28;20056;-72
2022/07/01 04:34:03;;;;;;;;;;;18.80;99.90;;;;;;4998945;28;20289;-72
2022/07/01 04:36:29;;;;;;;4.43;2.97;;;18.70;99.90;;;;;;5004411;28;20141;-75
2022/07/01 04:38:55;;;;;;;5.23;3.50;;;18.70;99.90;;;;;;4986267;28;20022;-75
2022/07/01 04:44:05;;;;;;;2.45;2.22;;;18.80;99.90;;;;;;4993062;28;20281;-75
2022/07/01 04:46:31;;;;;;;4.10;2.50;;;18.80;99.90;;;;;;4986231;28;20026;-75
2022/07/01 04:48:59;;;;;;;8.60;3.57;;;18.80;99.90;;;;;;5001238;28;20030;-75
2022/07/01 04:51:25;;;;;;;6.70;3.25;;;18.80;99.90;;;;;;4993519;28;20034;-75
2022/07/01 04:53:51;;;;;;;5.73;3.40;;;18.70;99.90;;;;;;5004980;28;20026;-73
2022/07/01 04:56:17;;;;;;;3.87;2.40;;;18.70;99.90;;;;;;4991251;28;20085;-73
2022/07/01 04:58:42;;;;;;;3.67;2.63;;;18.70;99.90;;;;;;4965897;29;20035;-75
2022/07/01 05:01:08;;;;;;;4.90;3.10;;;18.70;99.90;;;;;;4981079;28;20030;-75
2022/07/01 05:03:34;;;;;;;5.37;3.50;;;18.70;99.90;;;;;;4964698;29;20217;-75
2022/07/01 05:06:00;;;;;;;3.60;2.70;;;18.70;99.90;;;;;;4966135;29;20030;-75
2022/07/01 05:08:26;;;;;;;3.80;2.70;;;18.70;99.90;;;;;;4980990;28;20035;-75
2022/07/01 05:10:51;;;;;;;6.00;2.70;;;18.70;99.90;;;;;;4964750;29;20250;-75
2022/07/01 05:13:17;;;;;;;4.17;3.03;;;18.60;99.90;;;;;;4994070;28;20656;-75
2022/07/01 05:15:43;;;;;;;5.53;3.33;;;18.50;99.90;;;;;;4985317;28;20045;-75
2022/07/01 05:23:37;;;;;;;4.18;2.33;;;18.30;99.90;;;;;;4984069;28;20026;-75
2022/07/01 05:26:03;;;;;;;3.87;2.90;;;18.30;99.90;;;;;;5000132;28;20030;-76
2022/07/01 05:28:29;;;;;;;4.22;2.42;;;18.20;99.90;;;;;;4984513;28;20027;-77
2022/07/01 05:30:55;;;;;;;5.63;2.50;;;18.10;99.90;;;;;;4986827;28;20023;-77
2022/07/01 05:33:21;;;;;;;2.90;2.27;;;18.10;99.90;;;;;;4982444;28;20070;-76
2022/07/01 05:35:47;;;;;;;4.77;2.50;;;18.10;99.90;;;;;;4972542;28;20026;-76
2022/07/01 05:38:13;;;;;;;5.10;2.60;;;18.10;99.90;;;;;;4975349;28;20321;-75
2022/07/01 05:40:39;;;;;;;3.30;2.27;;;18.10;99.90;;;;;;4994196;28;20082;-75
2022/07/01 05:43:05;;;;;;;3.50;2.50;;;18.10;99.90;;;;;;4977703;28;20066;-71
2022/07/01 05:45:31;;;;;;;2.90;2.30;;;18.10;99.90;;;;;;4992688;28;20042;-73
2022/07/01 05:47:56;;;;;;;2.67;2.20;;;18.00;99.90;;;;;;4990992;28;20033;-73
2022/07/01 05:50:23;;;;;;;5.03;2.03;;;17.80;99.90;;;;;;4996046;28;20103;-74
2022/07/01 05:52:49;;;;;;;;;;;17.80;99.90;;;;;;4979901;28;20326;-75
2022/07/01 05:55:15;;;;;;;4.35;2.00;;;17.50;99.90;;;;;;5002716;28;19924;-72
2022/07/01 05:57:40;;;;;;;3.50;2.47;;;17.30;99.90;;;;;;5003644;28;20019;-73
2022/07/01 06:00:07;;;;;;;5.40;2.10;;;17.20;99.90;;;;;;5003708;28;20044;-75
2022/07/01 06:02:32;;;;;;;3.45;2.72;;;17.00;99.90;;;;;;5002656;28;20029;-76
2022/07/01 06:04:59;;;;;;;2.37;1.73;;;16.90;99.90;;;;;;5002318;28;20237;-73
2022/07/01 06:07:25;;;;;;;2.47;2.00;;;17.00;99.90;;;;;;4996568;28;20037;-72
2022/07/01 06:09:51;;;;;;;2.87;1.90;;;16.90;99.90;;;;;;4984173;28;20020;-72
2022/07/01 06:12:16;;;;;;;4.97;1.90;;;16.90;99.90;;;;;;4983142;28;20026;-73
2022/07/01 06:14:43;;;;;;;2.43;1.57;;;16.80;99.90;;;;;;4983846;28;20022;-72
2022/07/01 06:17:09;;;;;;;1.88;1.58;;;16.90;99.90;;;;;;4982717;28;20026;-72
2022/07/01 06:19:35;;;;;;;1.67;1.33;;;16.90;99.90;;;;;;4984012;28;20139;-72
2022/07/01 06:22:00;;;;;;;1.30;1.20;;;16.80;99.90;;;;;;4984144;28;20018;-72
2022/07/01 06:24:26;;;;;;;2.17;1.60;;;16.80;99.90;;;;;;4983761;28;20090;-72
2022/07/01 06:26:52;;;;;;;1.53;1.40;;;16.80;99.90;;;;;;4984024;28;20027;-72
2022/07/01 06:29:18;;;;;;;2.20;1.47;;;16.80;99.90;;;;;;4982591;28;20233;-75
2022/07/01 06:31:43;;;;;;;1.70;1.50;;;16.80;99.90;;;;;;4983890;28;20034;-75
2022/07/01 06:34:09;;;;;;;2.20;1.47;;;16.90;99.90;;;;;;4983691;28;20111;-73
2022/07/01 06:36:35;;;;;;;2.30;1.63;;;17.10;99.90;;;;;;4983912;28;20217;-72
2022/07/01 06:39:01;;;;;;;2.17;1.57;;;17.20;99.90;;;;;;4983790;28;20337;-73
2022/07/01 06:41:26;;;;;;;2.10;1.70;;;17.20;99.90;;;;;;4983871;28;20073;-73
2022/07/01 06:43:53;;;;;;;2.23;1.70;;;17.20;99.90;;;;;;4982463;28;20262;-73
2022/07/01 06:46:20;;;;;;;1.92;1.63;;;17.20;99.90;;;;;;4966492;28;20321;-73
2022/07/01 06:48:45;;;;;;;1.65;1.40;;;17.30;99.90;;;;;;4966421;28;20330;-73
2022/07/01 06:51:11;;;;;;;2.63;1.57;;;17.30;99.90;;;;;;4983580;28;20030;-74
2022/07/01 06:53:37;;;;;;;2.07;1.50;;;17.30;99.90;;;;;;4981958;28;20030;-74
2022/07/01 06:56:03;;;;;;;1.10;1.00;;;17.30;99.90;;;;;;4966304;28;20383;-74
2022/07/01 06:58:29;;;;;;;2.95;1.55;;;17.40;99.90;;;;;;4983421;28;20022;-74
2022/07/01 07:00:54;;;;;;;1.40;1.30;;;17.40;99.90;;;;;;4982321;28;20026;-74
2022/07/01 07:03:20;;;;;;;1.50;1.40;;;17.30;99.90;;;;;;4983087;28;20030;-74
2022/07/01 07:05:46;;;;;;;1.10;1.00;;;17.20;99.90;;;;;;4983297;28;20039;-74
2022/07/01 07:08:12;;;;;;;1.70;1.00;;;17.20;99.90;;;;;;4982266;28;20348;-74
2022/07/01 07:10:37;;;;;;;3.17;1.00;;;17.10;99.90;;;;;;4982653;28;20074;-74
2022/07/01 07:13:03;;;;;;;1.47;1.03;;;17.00;99.90;;;;;;4965126;28;20065;-74
2022/07/01 07:15:29;;;;;;;1.80;1.03;;;16.80;99.90;;;;;;4983095;28;20034;-74
2022/07/01 07:17:57;;;;;;;0.87;0.87;;;16.90;99.90;;;;;;4965796;28;20019;-75
2022/07/01 07:20:24;;;;;;;1.08;0.95;;;16.80;99.90;;;;;;4982491;28;20022;-75
2022/07/01 07:22:50;;;;;;;2.28;1.10;;;16.80;99.90;;;;;;4973312;28;20086;-75
2022/07/01 07:25:16;;;;;;;2.53;1.40;;;16.80;99.90;;;;;;4971574;28;20030;-75
2022/07/01 07:27:45;;;;;;;2.17;1.33;;;16.80;99.90;;;;;;4973713;28;20019;-75
2022/07/01 07:30:15;;;;;;;3.28;1.67;;;16.80;99.90;;;;;;4966562;28;20066;-75
2022/07/01 07:32:41;;;;;;;1.38;1.20;;;16.70;99.90;;;;;;4968061;28;20023;-76
2022/07/01 07:35:08;;;;;;;4.65;1.60;;;16.80;99.90;;;;;;4979277;28;20023;-75
2022/07/01 07:37:34;;;;;;;;;;;16.90;99.90;;;;;;4977772;28;20400;-75
2022/07/01 07:40:00;;;;;;;1.42;1.20;;;16.80;99.90;;;;;;4973821;28;19906;-75
2022/07/01 07:42:27;;;;;;;2.03;1.38;;;16.80;99.90;;;;;;4963902;28;20064;-75
2022/07/01 07:44:53;;;;;;;2.55;1.40;;;16.80;99.90;;;;;;4981497;28;20023;-75
2022/07/01 07:47:19;;;;;;;3.13;2.13;;;16.80;99.90;;;;;;4981322;28;20054;-75
2022/07/01 07:49:45;;;;;;;2.90;1.50;;;16.80;99.90;;;;;;4962899;28;20066;-75
2022/07/01 07:52:11;;;;;;;3.03;1.57;;;16.80;99.90;;;;;;4981709;28;20244;-75
2022/07/01 07:54:37;;;;;;;2.47;1.50;;;16.70;99.90;;;;;;4981393;28;20024;-75
2022/07/01 07:57:04;;;;;;;3.90;1.60;;;16.70;99.90;;;;;;4965339;28;20109;-75
2022/07/01 07:59:30;;;;;;;3.10;1.88;;;16.70;99.90;;;;;;4981629;28;20026;-75
2022/07/01 08:01:55;;;;;;;4.57;1.63;;;16.70;99.90;;;;;;4977626;28;20019;-75
2022/07/01 08:04:21;;;;;;;3.13;1.83;;;16.80;99.90;;;;;;4962881;29;20086;-75
2022/07/01 08:06:47;;;;;;;3.63;1.57;;;16.80;99.90;;;;;;4978374;28;20279;-74
2022/07/01 08:09:13;;;;;;;2.10;1.90;;;16.80;99.90;;;;;;4963413;29;20372;-75
2022/07/01 08:11:38;;;;;;;2.40;1.50;;;16.80;99.90;;;;;;4966345;28;20034;-75
2022/07/01 08:14:04;;;;;;;3.90;1.73;;;16.80;99.90;;;;;;4982294;28;20179;-74
2022/07/01 08:16:30;;;;;;;2.73;1.83;;;16.80;99.90;;;;;;4981475;28;20026;-74
2022/07/01 08:18:56;;;;;;;2.77;1.80;;;16.90;99.90;;;;;;4981386;28;20031;-74
2022/07/01 08:21:22;;;;;;;3.10;1.70;;;16.90;99.90;;;;;;4981563;28;20027;-74
2022/07/01 08:23:47;;;;;;;2.73;1.77;;;16.90;99.90;;;;;;4984790;28;20030;-74
2022/07/01 08:26:14;;;;;;;2.27;1.67;;;16.90;99.90;;;;;;4968865;28;20333;-74
2022/07/01 08:28:41;;;;;;;;;;;16.90;99.90;;;;;;4984971;28;20026;-74
2022/07/01 08:31:06;;;;;;;4.18;2.00;;;16.90;99.90;;;;;;4968707;28;19984;-73
2022/07/01 08:33:32;;;;;;;6.17;1.97;;;16.70;99.90;;;;;;4984542;28;20215;-73
2022/07/01 08:35:58;;;;;;;3.80;2.23;;;16.70;99.90;;;;;;4985896;28;20086;-74
2022/07/01 08:38:24;;;;;;;5.67;2.20;;;16.60;99.90;;;;;;4986053;28;20023;-79
2022/07/01 08:40:49;;;;;;;3.00;2.03;;;16.70;99.90;;;;;;4952769;28;20023;-79
2022/07/01 08:43:15;;;;;;;4.13;2.23;;;16.90;99.90;;;;;;4967714;28;20019;-79
2022/07/01 08:45:42;;;;;;;3.33;1.90;;;16.90;99.90;;;;;;4984835;28;20373;-79
2022/07/01 08:48:07;;;;;;;4.05;1.80;;;17.00;99.90;;;;;;4952479;28;20073;-76
2022/07/01 08:50:39;;;;;;;3.00;1.90;;;17.10;99.90;;;;;;4952517;28;20035;-76
2022/07/01 08:53:06;;;;;;;2.25;1.45;;;17.30;99.90;;;;;;4951864;28;20042;-77
2022/07/01 08:55:32;;;;;;;5.18;1.95;;;17.40;99.90;;;;;;4968346;28;20074;-76
2022/07/01 08:57:58;;;;;;;3.43;1.30;;;17.50;99.90;;;;;;4968182;28;20039;-76
2022/07/01 09:00:33;;;;;;;1.83;1.40;;;17.60;99.90;;;;;;4984494;28;20041;-76
2022/07/01 09:03:02;;;;;;;1.90;1.30;;;17.60;99.90;;;;;;4983963;28;20593;-76
2022/07/01 09:05:29;;;;;;;5.32;1.80;;;17.50;99.90;;;;;;4984448;28;20233;-76
2022/07/01 09:08:01;;;;;;;2.25;1.58;;;17.30;99.90;;;;;;4983207;28;20053;-75
2022/07/01 09:10:27;;;;;;;2.75;1.58;;;17.40;99.90;;;;;;4969234;28;20178;-76
2022/07/01 09:12:52;;;;;;;1.77;1.60;;;17.40;99.90;;;;;;4983347;28;20029;-76
2022/07/01 09:15:19;;;;;;;2.73;1.47;;;17.30;99.90;;;;;;4984826;28;20037;-76
2022/07/01 09:17:45;;;;;;;3.90;1.88;;;17.40;99.90;;;;;;4984452;28;20025;-76
2022/07/01 09:20:28;;;;;;;2.00;1.83;;;17.50;99.90;;;;;;4985096;28;20054;-76
2022/07/01 09:23:10;;;;;;;3.28;1.90;;;17.30;99.90;;;;;;4983140;28;20038;-76
2022/07/01 09:25:51;;;;;;;2.63;2.30;;;17.20;99.90;;;;;;4969666;28;20034;-75
2022/07/01 09:28:24;;;;;;;4.57;2.30;;;17.20;99.90;;;;;;4984249;28;20022;-75
2022/07/01 09:30:53;;;;;;;2.92;1.90;;;17.00;99.90;;;;;;4983767;28;20217;-76
2022/07/01 09:33:29;;;;;;;2.85;1.98;;;16.80;99.90;;;;;;4966556;28;20038;-76
2022/07/01 09:35:55;;;;;;;4.60;2.83;;;16.70;99.90;;;;;;4983947;28;20053;-75
2022/07/01 09:38:25;;;;;;;3.03;2.20;;;16.60;99.90;;;;;;4983851;28;20015;-76
2022/07/01 09:41:01;;;;;;;2.53;2.22;;;16.60;99.90;;;;;;4967720;28;20031;-76
2022/07/01 09:43:33;;;;;;;2.77;2.20;;;16.50;99.90;;;;;;4967009;28;20019;-75
2022/07/01 09:46:04;;;;;;;3.67;2.88;;;16.50;99.90;;;;;;4967532;28;20556;-75
2022/07/01 09:48:32;;;;;;;4.85;2.50;;;16.50;99.90;;;;;;4967224;28;20159;-75
2022/07/01 09:50:59;;;;;;;4.30;2.20;;;16.60;99.90;;;;;;4984284;28;20053;-74
2022/07/01 09:53:25;;;;;;;3.08;2.42;;;16.60;99.90;;;;;;4983992;28;20030;-75
2022/07/01 09:55:51;;;;;;;3.50;2.42;;;16.50;99.90;;;;;;4966910;28;20035;-75
2022/07/01 09:58:16;;;;;;;3.53;2.40;;;16.50;99.90;;;;;;4967516;28;20022;-75
2022/07/01 10:00:43;;;;;;;3.10;2.80;;;16.60;99.90;;;;;;4967216;28;20399;-74
2022/07/01 10:03:09;;;;;;;5.07;3.03;;;16.60;99.90;;;;;;4967166;28;20070;-74
2022/07/01 10:06:27;;;;;;;4.10;3.22;;;16.60;99.90;;;;;;4967297;28;20038;-75
2022/07/01 10:09:33;;;;;;;3.60;2.47;;;16.70;99.90;;;;;;4983330;28;20019;-74
2022/07/01 10:12:17;;;;;;;3.30;2.60;;;16.80;99.90;;;;;;4984219;28;20030;-75
2022/07/01 10:14:43;;;;;;;3.25;2.50;;;16.90;99.90;;;;;;4982670;28;20054;-75
2022/07/01 10:17:08;;;;;;;5.20;2.77;;;17.00;99.90;;;;;;4966972;28;20030;-75
2022/07/01 10:19:34;;;;;;;2.30;2.10;;;17.10;99.90;;;;;;4982327;28;20046;-75
2022/07/01 10:22:26;;;;;;;5.87;3.20;;;17.20;99.90;;;;;;4982812;28;20080;-75
2022/07/01 10:24:51;;;;;;;2.85;2.22;;;17.20;99.90;;;;;;4969442;28;20022;-75
2022/07/01 10:27:23;;;;;;;3.03;2.27;;;17.40;99.90;;;;;;4966438;28;20034;-75
2022/07/01 10:29:49;;;;;;;2.63;2.20;;;17.40;99.90;;;;;;4967228;28;20266;-75
2022/07/01 10:32:20;;;;;;;3.27;1.87;;;17.40;99.90;;;;;;4966874;28;20070;-75
2022/07/01 10:34:46;;;;;;;3.22;2.67;;;17.40;99.90;;;;;;4983618;28;20023;-75
2022/07/01 10:37:12;;;;;;;3.30;2.50;;;17.40;99.90;;;;;;4983772;28;20265;-75
2022/07/01 10:39:58;;;;;;;12.37;3.60;;;17.40;99.90;;;;;;4982698;28;20297;-75
2022/07/01 10:42:36;;;;;;;3.95;3.03;;;17.50;99.90;;;;;;4966544;28;20041;-76
2022/07/01 10:45:09;;;;;;;3.00;2.65;;;17.50;99.90;;;;;;4982075;28;20023;-73
2022/07/01 10:47:36;;;;;;;3.33;2.22;;;17.50;99.90;;;;;;4983195;28;20257;-74
2022/07/01 10:50:10;;;;;;;3.35;2.75;;;17.60;99.90;;;;;;4982049;28;20026;-73
2022/07/01 10:52:36;;;;;;;3.20;2.45;;;17.60;99.90;;;;;;4980191;28;20233;-74
2022/07/01 10:55:08;;;;;;;2.03;1.70;;;17.50;99.90;;;;;;4983610;28;20061;-72
2022/07/01 10:57:41;;;;;;;3.10;1.70;;;17.50;99.90;;;;;;4965742;28;20062;-72
2022/07/01 11:00:07;;;;;;;2.25;1.67;;;17.40;99.90;;;;;;4966086;28;20065;-75
2022/07/01 11:02:37;;;;;;;2.97;2.00;;;17.30;99.90;;;;;;4982827;28;20035;-74
2022/07/01 11:05:13;;;;;;;3.17;1.70;;;17.10;99.90;;;;;;4966681;28;20194;-74
2022/07/01 11:07:45;;;;;;;3.22;2.22;;;16.90;99.90;;;;;;4982979;28;20023;-75
2022/07/01 11:10:11;;;;;;;2.78;2.08;;;16.60;99.90;;;;;;4967688;28;20202;-75
2022/07/01 11:12:37;;;;;;;1.90;1.73;;;16.60;99.90;;;;;;4982717;28;20066;-74
2022/07/01 11:15:07;;;;;;;4.17;1.97;;;16.60;99.90;;;;;;4966655;28;20046;-74
2022/07/01 11:17:33;;;;;;;2.97;2.00;;;16.50;99.90;;;;;;4967236;28;20027;-74
2022/07/01 11:20:01;;;;;;;2.28;1.80;;;16.40;99.90;;;;;;4982494;28;20014;-74
2022/07/01 11:22:34;;;;;;;3.03;2.33;;;16.40;99.90;;;;;;4966880;28;20023;-74
2022/07/01 11:25:11;;;;;;;4.63;2.85;;;16.30;99.90;;;;;;4966497;28;20314;-74
2022/07/01 11:27:37;;;;;;;2.70;2.15;;;16.40;99.90;;;;;;4966948;28;20033;-74
2022/07/01 11:30:13;;;;;;;4.13;2.50;;;16.40;99.90;;;;;;4982693;28;20054;-74
2022/07/01 11:32:42;;;;;;;2.97;2.40;;;16.40;99.90;;;;;;4967043;28;20325;-74
2022/07/01 11:39:21;;;;;;;4.15;2.47;;;16.40;99.90;;;;;;4966812;28;20588;-74
2022/07/01 11:40:50;;;;;;;;;;;16.30;99.90;;;;;;4982981;28;20098;-76
2022/07/01 11:43:33;;;;;;;2.58;2.10;;;16.30;99.90;;;;;;4965204;28;19906;-75
2022/07/01 11:46:01;;;;;;;2.95;2.03;;;16.30;99.90;;;;;;4952546;28;20102;-74
2022/07/01 11:48:40;;;;;;;2.95;1.60;;;16.40;99.90;;;;;;4966444;28;20035;-75
2022/07/01 11:51:15;;;;;;;2.08;1.73;;;16.50;99.90;;;;;;4982478;28;20321;-75
2022/07/01 11:53:46;;;;;;;3.97;1.90;;;16.60;99.90;;;;;;4966871;28;20057;-75
2022/07/01 11:56:12;;;;;;;2.55;1.70;;;16.60;99.90;;;;;;4950271;28;20038;-74
2022/07/01 11:58:52;;;;;;;2.97;2.35;;;16.60;99.90;;;;;;4986139;28;20022;-75
2022/07/01 12:01:35;;;;;;;2.95;1.90;;;16.60;99.90;;;;;;4992121;28;20044;-75
2022/07/01 12:04:03;;;;;;;2.40;1.90;;;16.60;99.90;;;;;;4959170;28;20031;-75
2022/07/01 12:06:29;;;;;;;5.97;1.90;;;16.60;99.90;;;;;;4989939;28;20106;-75
2022/07/01 12:08:56;;;;;;;2.05;1.85;;;16.50;99.90;;;;;;4972629;28;20022;-74
2022/07/01 12:11:22;;;;;;;2.22;1.83;;;16.50;99.90;;;;;;4988964;28;20027;-76
2022/07/01 12:13:48;;;;;;;1.73;1.60;;;16.40;99.90;;;;;;4989186;28;20241;-76
2022/07/01 12:16:14;;;;;;;1.97;1.80;;;16.50;99.90;;;;;;4970812;28;20076;-75
2022/07/01 12:18:54;;;;;;;2.17;1.80;;;16.50;99.90;;;;;;4970368;28;20274;-75
2022/07/01 12:21:21;;;;;;;2.70;1.75;;;16.50;99.90;;;;;;4939324;28;20029;-75
2022/07/01 12:24:11;;;;;;;2.58;1.90;;;16.50;99.90;;;;;;4938183;28;20023;-75
2022/07/01 12:26:50;;;;;;;2.28;2.08;;;16.60;99.90;;;;;;4970116;28;20026;-76
2022/07/01 12:29:17;;;;;;;2.33;1.70;;;16.70;99.90;;;;;;4970855;28;20333;-75
2022/07/01 12:31:43;;;;;;;1.63;1.50;;;16.70;99.90;;;;;;4985785;28;20039;-75
2022/07/01 12:34:09;;;;;;;5.70;1.90;;;16.60;99.90;;;;;;4985316;28;20094;-75
2022/07/01 12:36:35;;;;;;;2.77;1.73;;;16.50;99.90;;;;;;4986516;28;20069;-75
2022/07/01 12:39:08;;;;;;;2.33;1.73;;;16.50;99.90;;;;;;4985741;28;20072;-75
2022/07/01 12:41:35;;;;;;;2.78;1.45;;;16.40;99.90;;;;;;4969515;28;20023;-75
2022/07/01 12:44:05;;;;;;;;;;;16.40;99.90;;;;;;4969402;28;20061;-75
2022/07/01 12:46:31;;;;;;;3.67;1.83;;;16.50;99.90;;;;;;4978473;28;19978;-77
2022/07/01 12:48:58;;;;;;;2.90;1.90;;;16.40;99.90;;;;;;4962383;28;20496;-76
2022/07/01 12:51:33;;;;;;;;;;;16.40;99.90;;;;;;4985253;28;20042;-78
2022/07/01 12:53:59;;;;;;;2.53;2.00;;;16.40;99.90;;;;;;4984136;28;19961;-77
2022/07/01 12:56:27;;;;;;;2.33;2.00;;;16.40;99.90;;;;;;5000771;28;20394;-78
2022/07/01 12:58:53;;;;;;;1.90;1.70;;;16.30;99.90;;;;;;4984457;28;20031;-77
2022/07/01 13:01:20;;;;;;;1.58;1.30;;;16.30;99.90;;;;;;4984122;28;20222;-78
2022/07/01 13:03:45;;;;;;;2.03;1.65;;;16.30;99.90;;;;;;4999223;28;20097;-79
2022/07/01 13:06:11;;;;;;;1.83;1.57;;;16.20;99.90;;;;;;4984424;28;20034;-76